createdAt,value
2022-10-12T00:01:07.210Z,101695.81
2022-10-12T00:03:35.454Z,101700.34
2022-10-12T00:06:15.894Z,101699.38
2022-10-12T00:08:45.354Z,101696.44
2022-10-12T00:11:15.957Z,101693.50
2022-10-12T00:13:49.817Z,101694.63
2022-10-12T00:16:20.312Z,101703.06
2022-10-12T00:18:55.211Z,101702.97
2022-10-12T00:21:23.225Z,101701.22
2022-10-12T00:23:50.963Z,101697.56
2022-10-12T00:26:23.442Z,101703.06
2022-10-12T00:28:55.885Z,101702.09
2022-10-12T00:31:23.712Z,101698.28
2022-10-12T00:33:51.476Z,101705.41
2022-10-12T00:36:19.197Z,101707.47
2022-10-12T00:38:47.252Z,101715.09
2022-10-12T00:41:15.195Z,101713.75
2022-10-12T00:43:43.288Z,101713.28
2022-10-12T00:46:18.300Z,101707.38
2022-10-12T00:48:52.950Z,101711.91
2022-10-12T00:51:20.811Z,101714.25
2022-10-12T00:54:00.138Z,101713.00
2022-10-12T00:56:28.585Z,101713.25
2022-10-12T00:58:56.218Z,101719.00
2022-10-12T01:01:25.748Z,101719.13
2022-10-12T01:03:53.516Z,101717.16
2022-10-12T01:06:21.373Z,101719.09
2022-10-12T01:08:50.821Z,101715.56
2022-10-12T01:11:18.759Z,101723.75
2022-10-12T01:13:46.371Z,101721.66
2022-10-12T01:16:17.601Z,101721.66
2022-10-12T01:19:10.279Z,101718.19
2022-10-12T01:21:39.858Z,101714.88
2022-10-12T01:24:48.904Z,101706.97
2022-10-12T01:27:27.551Z,101707.31
2022-10-12T01:30:11.394Z,101711.09
2022-10-12T01:33:19.638Z,101708.38
2022-10-12T01:36:01.816Z,101719.41
2022-10-12T01:38:41.908Z,101719.41
2022-10-12T01:41:12.153Z,101715.72
2022-10-12T01:43:41.206Z,101714.00
2022-10-12T01:46:17.608Z,101717.88
2022-10-12T01:48:49.919Z,101717.38
2022-10-12T01:51:38.528Z,101710.50
2022-10-12T01:54:11.385Z,101712.69
2022-10-12T01:56:45.532Z,101713.88
2022-10-12T01:59:20.726Z,101715.94
2022-10-12T02:02:17.636Z,101714.56
2022-10-12T02:05:04.638Z,101712.31
2022-10-12T02:07:49.514Z,101716.44
2022-10-12T02:10:22.972Z,101713.00
2022-10-12T02:12:52.499Z,101718.38
2022-10-12T02:15:20.112Z,101713.22
2022-10-12T02:17:48.290Z,101712.69
2022-10-12T02:20:16.814Z,101720.25
2022-10-12T02:22:45.611Z,101716.69
2022-10-12T02:25:14.195Z,101722.19
2022-10-12T02:27:44.838Z,101718.84
2022-10-12T02:30:12.725Z,101724.59
2022-10-12T02:32:57.223Z,101722.78
2022-10-12T02:35:58.016Z,101723.13
2022-10-12T02:38:27.786Z,101727.22
2022-10-12T02:41:01.776Z,101717.63
2022-10-12T02:43:42.193Z,101728.06
2022-10-12T02:46:10.640Z,101723.56
2022-10-12T02:48:39.589Z,101730.47
2022-10-12T02:51:07.917Z,101727.44
2022-10-12T02:53:36.709Z,101728.94
2022-10-12T02:56:11.900Z,101722.81
2022-10-12T02:58:39.552Z,101728.06
2022-10-12T03:01:07.416Z,101733.97
2022-10-12T03:03:35.064Z,101724.63
2022-10-12T03:06:03.653Z,101730.72
2022-10-12T03:08:31.419Z,101719.22
2022-10-12T03:11:06.196Z,101726.41
2022-10-12T03:13:34.035Z,101725.66
2022-10-12T03:16:05.565Z,101727.28
2022-10-12T03:18:36.863Z,101726.53
2022-10-12T03:21:05.305Z,101724.38
2022-10-12T03:23:33.301Z,101731.78
2022-10-12T03:26:01.093Z,101728.00
2022-10-12T03:28:29.046Z,101727.16
2022-10-12T03:30:57.059Z,101732.53
2022-10-12T03:33:24.995Z,101722.19
2022-10-12T03:35:52.743Z,101737.78
2022-10-12T03:38:20.727Z,101737.41
2022-10-12T03:40:48.398Z,101734.28
2022-10-12T03:43:17.350Z,101735.63
2022-10-12T03:45:45.262Z,101731.44
2022-10-12T03:48:12.852Z,101732.50
2022-10-12T03:50:41.424Z,101738.84
2022-10-12T03:53:09.017Z,101737.13
2022-10-12T03:55:36.727Z,101733.47
2022-10-12T03:58:04.418Z,101726.81
2022-10-12T04:00:32.819Z,101715.00
2022-10-12T04:03:02.332Z,101717.22
2022-10-12T04:05:30.566Z,101713.38
2022-10-12T04:07:58.545Z,101709.63
2022-10-12T04:10:26.310Z,101720.06
2022-10-12T04:12:54.237Z,101718.13
2022-10-12T04:17:50.394Z,101724.44
2022-10-12T04:20:21.259Z,101726.94
2022-10-12T04:22:49.689Z,101723.09
2022-10-12T04:25:17.434Z,101725.47
2022-10-12T04:27:45.236Z,101725.81
2022-10-12T04:30:13.562Z,101723.53
2022-10-12T04:32:41.346Z,101719.25
2022-10-12T04:35:09.338Z,101718.19
2022-10-12T04:37:37.003Z,101718.84
2022-10-12T04:40:05.222Z,101710.75
2022-10-12T04:42:33.018Z,101699.56
2022-10-12T04:45:00.568Z,101698.84
2022-10-12T04:47:30.568Z,101711.94
2022-10-12T04:49:58.227Z,101714.22
2022-10-12T04:52:26.018Z,101711.84
2022-10-12T04:54:53.842Z,101711.94
2022-10-12T04:57:21.597Z,101710.25
2022-10-12T04:59:49.212Z,101721.59
2022-10-12T05:02:16.964Z,101726.66
2022-10-12T05:04:44.653Z,101721.25
2022-10-12T05:07:12.861Z,101720.03
2022-10-12T05:09:42.737Z,101730.59
2022-10-12T05:12:12.515Z,101737.47
2022-10-12T05:14:40.085Z,101738.28
2022-10-12T05:17:07.763Z,101740.84
2022-10-12T05:19:39.338Z,101742.53
2022-10-12T05:22:07.098Z,101749.69
2022-10-12T05:24:34.860Z,101749.66
2022-10-12T05:27:04.128Z,101764.75
2022-10-12T05:29:32.573Z,101758.91
2022-10-12T05:32:00.704Z,101769.81
2022-10-12T05:34:28.743Z,101774.66
2022-10-12T05:36:58.388Z,101767.34
2022-10-12T05:39:25.963Z,101763.69
2022-10-12T05:41:56.037Z,101767.06
2022-10-12T05:44:24.019Z,101767.56
2022-10-12T05:46:52.513Z,101766.50
2022-10-12T05:49:20.206Z,101768.13
2022-10-12T05:51:47.876Z,101768.88
2022-10-12T05:54:15.667Z,101777.91
2022-10-12T05:56:43.816Z,101781.25
2022-10-12T05:59:12.059Z,101776.03
2022-10-12T06:01:40.023Z,101785.75
2022-10-12T06:04:07.806Z,101785.94
2022-10-12T06:06:35.937Z,101784.09
2022-10-12T06:09:03.706Z,101795.16
2022-10-12T06:11:35.533Z,101788.44
2022-10-12T06:14:04.743Z,101799.72
2022-10-12T06:16:32.779Z,101798.72
2022-10-12T06:19:00.923Z,101811.31
2022-10-12T06:21:33.625Z,101814.16
2022-10-12T06:24:02.099Z,101815.69
2022-10-12T06:26:32.382Z,101816.22
2022-10-12T06:29:00.972Z,101824.81
2022-10-12T06:31:29.364Z,101830.66
2022-10-12T06:33:58.321Z,101829.91
2022-10-12T06:36:25.945Z,101832.31
2022-10-12T06:38:53.713Z,101832.25
2022-10-12T06:41:21.944Z,101840.50
2022-10-12T06:43:49.524Z,101830.72
2022-10-12T06:46:17.134Z,101837.53
2022-10-12T06:48:45.164Z,101844.91
2022-10-12T06:51:12.773Z,101845.47
2022-10-12T06:53:40.600Z,101833.03
2022-10-12T06:56:11.528Z,101844.03
2022-10-12T06:58:39.285Z,101850.47
2022-10-12T07:01:08.236Z,101840.91
2022-10-12T07:03:37.184Z,101844.88
2022-10-12T07:06:09.199Z,101844.25
2022-10-12T07:08:36.911Z,101848.41
2022-10-12T07:11:19.387Z,101859.03
2022-10-12T07:13:51.995Z,101855.91
2022-10-12T07:16:19.649Z,101862.00
2022-10-12T07:18:47.290Z,101846.59
2022-10-12T07:21:15.339Z,101851.81
2022-10-12T07:23:46.169Z,101847.97
2022-10-12T07:26:14.131Z,101853.50
2022-10-12T07:28:41.859Z,101854.25
2022-10-12T07:31:10.167Z,101859.63
2022-10-12T07:33:38.844Z,101855.06
2022-10-12T07:36:19.128Z,101847.97
2022-10-12T07:38:49.209Z,101847.28
2022-10-12T07:41:21.126Z,101839.13
2022-10-12T07:43:48.743Z,101839.84
2022-10-12T07:46:16.371Z,101836.09
2022-10-12T07:48:47.435Z,101839.88
2022-10-12T07:51:17.795Z,101843.81
2022-10-12T07:53:45.388Z,101842.81
2022-10-12T07:59:07.562Z,101844.34
2022-10-12T08:01:35.926Z,101848.47
2022-10-12T08:04:03.666Z,101846.94
2022-10-12T08:06:32.698Z,101841.94
2022-10-12T08:09:00.662Z,101843.81
2022-10-12T08:11:28.403Z,101846.00
2022-10-12T08:13:57.618Z,101851.97
2022-10-12T08:16:25.188Z,101844.94
2022-10-12T08:18:52.797Z,101851.28
2022-10-12T08:21:20.520Z,101852.13
2022-10-12T08:23:48.887Z,101850.41
2022-10-12T08:26:16.484Z,101842.97
2022-10-12T08:28:44.351Z,101848.28
2022-10-12T08:31:13.715Z,101843.47
2022-10-12T08:33:42.152Z,101839.88
2022-10-12T08:36:10.905Z,101845.13
2022-10-12T08:38:39.083Z,101834.63
2022-10-12T08:41:25.342Z,101832.38
2022-10-12T08:44:21.192Z,101825.19
2022-10-12T08:46:48.995Z,101819.47
2022-10-12T08:49:21.791Z,101822.59
2022-10-12T08:51:54.442Z,101818.81
2022-10-12T08:54:27.211Z,101808.13
2022-10-12T08:56:54.940Z,101821.97
2022-10-12T08:59:22.609Z,101816.78
2022-10-12T09:02:02.968Z,101807.72
2022-10-12T09:04:46.252Z,101815.91
2022-10-12T09:07:28.343Z,101817.34
2022-10-12T09:09:55.856Z,101821.94
2022-10-12T09:12:46.216Z,101813.97
2022-10-12T09:15:39.655Z,101819.56
2022-10-12T09:18:17.317Z,101805.75
2022-10-12T09:20:49.859Z,101807.47
2022-10-12T09:23:25.999Z,101804.31
2022-10-12T09:26:15.878Z,101804.69
2022-10-12T09:28:54.764Z,101810.09
2022-10-12T09:31:37.718Z,101798.78
2022-10-12T09:34:07.134Z,101792.25
2022-10-12T09:36:39.576Z,101792.25
2022-10-12T09:39:21.923Z,101798.88
2022-10-12T09:41:52.082Z,101783.94
2022-10-12T09:44:40.400Z,101785.81
2022-10-12T09:47:24.458Z,101793.34
2022-10-12T09:49:52.750Z,101785.25
2022-10-12T09:52:31.899Z,101778.56
2022-10-12T09:55:20.090Z,101771.00
2022-10-12T09:57:59.173Z,101774.19
2022-10-12T10:00:31.929Z,101757.28
2022-10-12T10:03:00.031Z,101763.41
2022-10-12T10:05:29.276Z,101756.03
2022-10-12T10:08:21.880Z,101770.59
2022-10-12T10:10:57.860Z,101769.19
2022-10-12T10:13:29.039Z,101768.28
2022-10-12T10:16:16.885Z,101763.41
2022-10-12T10:19:05.890Z,101758.75
2022-10-12T10:21:35.333Z,101757.81
2022-10-12T10:24:04.680Z,101745.22
2022-10-12T10:26:55.340Z,101745.53
2022-10-12T10:29:22.833Z,101747.97
2022-10-12T10:31:52.792Z,101747.91
2022-10-12T10:34:22.512Z,101759.72
2022-10-12T10:36:56.080Z,101752.97
2022-10-12T10:39:28.923Z,101751.31
2022-10-12T10:41:57.087Z,101752.16
2022-10-12T10:44:46.939Z,101743.78
2022-10-12T10:47:14.767Z,101736.50
2022-10-12T10:49:47.074Z,101734.25
2022-10-12T10:52:31.527Z,101729.34
2022-10-12T10:55:11.567Z,101730.09
2022-10-12T10:57:43.898Z,101726.44
2022-10-12T11:00:37.353Z,101722.94
2022-10-12T11:03:05.933Z,101721.44
2022-10-12T11:05:48.714Z,101723.31
2022-10-12T11:08:25.241Z,101721.00
2022-10-12T11:11:03.941Z,101721.47
2022-10-12T11:13:38.904Z,101722.16
2022-10-12T11:16:09.482Z,101722.97
2022-10-12T11:18:40.952Z,101722.75
2022-10-12T11:21:21.384Z,101720.84
2022-10-12T11:23:52.234Z,101714.97
2022-10-12T11:26:36.386Z,101712.28
2022-10-12T11:29:04.090Z,101725.19
2022-10-12T11:31:36.228Z,101718.66
2022-10-12T11:34:12.620Z,101714.94
2022-10-12T11:37:01.119Z,101712.72
2022-10-12T11:39:35.102Z,101709.97
2022-10-12T11:42:20.890Z,101708.34
2022-10-12T11:44:49.701Z,101702.38
2022-10-12T11:47:46.183Z,101706.03
2022-10-12T11:50:21.022Z,101716.03
2022-10-12T11:52:51.404Z,101713.13
2022-10-12T11:55:23.398Z,101707.03
2022-10-12T11:57:51.367Z,101702.97
2022-10-12T12:00:24.022Z,101701.03
2022-10-12T12:02:58.661Z,101703.34
2022-10-12T12:05:31.273Z,101705.91
2022-10-12T12:07:59.395Z,101701.84
2022-10-12T12:10:27.870Z,101698.22
2022-10-12T12:13:14.962Z,101687.78
2022-10-12T12:16:03.997Z,101701.56
2022-10-12T12:18:33.944Z,101697.25
2022-10-12T12:21:02.800Z,101690.63
2022-10-12T12:23:42.775Z,101688.31
2022-10-12T12:26:16.241Z,101686.94
2022-10-12T12:29:10.840Z,101691.28
2022-10-12T12:31:40.131Z,101691.97
2022-10-12T12:34:14.454Z,101683.53
2022-10-12T12:36:46.009Z,101689.72
2022-10-12T12:39:33.066Z,101677.44
2022-10-12T12:42:02.648Z,101672.28
2022-10-12T12:44:43.247Z,101680.53
2022-10-12T12:50:00.911Z,101678.16
2022-10-12T12:52:48.934Z,101676.03
2022-10-12T12:55:16.821Z,101682.09
2022-10-12T12:58:02.797Z,101673.25
2022-10-12T13:00:38.985Z,101671.28
2022-10-12T13:03:31.103Z,101668.72
2022-10-12T13:06:43.813Z,101672.69
2022-10-12T13:09:22.731Z,101667.03
2022-10-12T13:12:28.305Z,101663.25
2022-10-12T13:15:21.825Z,101661.66
2022-10-12T13:18:18.437Z,101658.72
2022-10-12T13:20:56.073Z,101646.97
2022-10-12T13:23:26.198Z,101653.88
2022-10-12T13:25:57.061Z,101664.00
2022-10-12T13:28:26.726Z,101663.38
2022-10-12T13:31:07.325Z,101668.06
2022-10-12T13:33:44.362Z,101668.53
2022-10-12T13:36:25.655Z,101668.56
2022-10-12T13:38:57.915Z,101668.56
2022-10-12T13:41:31.462Z,101666.81
2022-10-12T13:44:06.748Z,101656.31
2022-10-12T13:46:37.497Z,101669.72
2022-10-12T13:49:25.761Z,101673.19
2022-10-12T13:51:58.561Z,101657.50
2022-10-12T13:54:47.588Z,101657.31
2022-10-12T13:57:34.846Z,101656.19
2022-10-12T14:00:04.643Z,101648.28
2022-10-12T14:02:33.142Z,101660.72
2022-10-12T14:05:02.725Z,101654.56
2022-10-12T14:07:40.227Z,101648.53
2022-10-12T14:10:13.143Z,101645.25
2022-10-12T14:12:40.970Z,101649.97
2022-10-12T14:15:08.791Z,101643.13
2022-10-12T14:17:42.525Z,101640.69
2022-10-12T14:20:18.893Z,101635.22
2022-10-12T14:22:48.086Z,101644.03
2022-10-12T14:25:19.882Z,101645.41
2022-10-12T14:27:56.313Z,101637.06
2022-10-12T14:30:27.988Z,101638.66
2022-10-12T14:32:59.582Z,101634.72
2022-10-12T14:35:28.508Z,101631.53
2022-10-12T14:37:56.672Z,101636.94
2022-10-12T14:40:27.243Z,101629.00
2022-10-12T14:43:13.972Z,101627.63
2022-10-12T14:45:41.640Z,101625.06
2022-10-12T14:48:14.312Z,101623.94
2022-10-12T14:50:42.944Z,101621.88
2022-10-12T14:53:12.227Z,101612.09
2022-10-12T14:55:41.596Z,101623.22
2022-10-12T14:58:15.798Z,101618.75
2022-10-12T15:00:43.596Z,101618.94
2022-10-12T15:03:11.335Z,101625.25
2022-10-12T15:05:39.170Z,101624.53
2022-10-12T15:08:09.428Z,101627.72
2022-10-12T15:10:38.410Z,101625.50
2022-10-12T15:13:06.216Z,101631.06
2022-10-12T15:15:36.440Z,101624.28
2022-10-12T15:18:04.355Z,101627.81
2022-10-12T15:20:33.578Z,101628.59
2022-10-12T15:23:01.497Z,101620.66
2022-10-12T15:25:35.269Z,101617.09
2022-10-12T15:28:03.597Z,101624.88
2022-10-12T15:30:31.988Z,101623.00
2022-10-12T15:33:00.041Z,101625.25
2022-10-12T15:35:29.062Z,101628.53
2022-10-12T15:37:56.675Z,101638.47
2022-10-12T15:40:24.679Z,101638.16
2022-10-12T15:42:52.429Z,101640.53
2022-10-12T15:45:23.889Z,101646.00
2022-10-12T15:47:51.722Z,101650.78
2022-10-12T15:50:29.141Z,101647.69
2022-10-12T15:52:57.191Z,101643.06
2022-10-12T15:55:26.654Z,101649.22
2022-10-12T15:57:54.358Z,101656.53
2022-10-12T16:00:26.058Z,101653.28
2022-10-12T16:02:53.979Z,101661.59
2022-10-12T16:05:22.899Z,101659.88
2022-10-12T16:07:50.922Z,101664.59
2022-10-12T16:10:20.176Z,101665.63
2022-10-12T16:12:50.289Z,101665.75
2022-10-12T16:15:26.259Z,101669.66
2022-10-12T16:17:53.984Z,101667.25
2022-10-12T16:20:21.691Z,101674.81
2022-10-12T16:22:49.820Z,101667.91
2022-10-12T16:25:18.267Z,101666.13
2022-10-12T16:27:46.238Z,101671.19
2022-10-12T16:30:14.749Z,101670.47
2022-10-12T16:32:43.018Z,101665.81
2022-10-12T16:35:11.208Z,101670.38
2022-10-12T16:37:39.605Z,101669.63
2022-10-12T16:40:09.328Z,101666.53
2022-10-12T16:42:37.900Z,101675.16
2022-10-12T16:45:06.354Z,101673.97
2022-10-12T16:47:35.856Z,101678.13
2022-10-12T16:50:07.019Z,101677.94
2022-10-12T16:52:34.697Z,101682.88
2022-10-12T16:55:02.686Z,101687.22
2022-10-12T16:57:30.610Z,101690.59
2022-10-12T16:59:59.016Z,101694.72
2022-10-12T17:02:27.994Z,101688.38
2022-10-12T17:04:55.633Z,101692.91
2022-10-12T17:07:23.726Z,101694.59
2022-10-12T17:09:51.773Z,101695.50
2022-10-12T17:12:19.449Z,101695.38
2022-10-12T17:14:49.955Z,101687.19
2022-10-12T17:17:17.924Z,101690.19
2022-10-12T17:19:45.713Z,101685.41
2022-10-12T17:22:14.088Z,101680.13
2022-10-12T17:24:42.572Z,101685.91
2022-10-12T17:27:11.835Z,101681.44
2022-10-12T17:29:42.257Z,101680.59
2022-10-12T17:32:10.534Z,101677.72
2022-10-12T17:34:42.355Z,101676.97
2022-10-12T17:37:13.366Z,101676.09
2022-10-12T17:39:43.036Z,101674.34
2022-10-12T17:42:10.905Z,101670.75
2022-10-12T17:44:38.661Z,101667.78
2022-10-12T17:47:06.529Z,101675.41
2022-10-12T17:49:34.191Z,101677.41
2022-10-12T17:52:01.862Z,101669.13
2022-10-12T17:54:29.585Z,101678.63
2022-10-12T17:56:57.547Z,101675.16
2022-10-12T17:59:25.277Z,101677.31
2022-10-12T18:01:53.291Z,101678.03
2022-10-12T18:04:21.221Z,101671.22
2022-10-12T18:06:48.851Z,101668.81
2022-10-12T18:09:21.517Z,101666.94
2022-10-12T18:11:50.246Z,101670.41
2022-10-12T18:14:20.218Z,101672.72
2022-10-12T18:16:48.420Z,101662.81
2022-10-12T18:19:17.311Z,101673.47
2022-10-12T18:21:45.924Z,101669.22
2022-10-12T18:24:17.726Z,101670.78
2022-10-12T18:26:47.087Z,101675.59
2022-10-12T18:29:18.262Z,101669.59
2022-10-12T18:31:46.331Z,101672.88
2022-10-12T18:34:13.984Z,101677.16
2022-10-12T18:36:42.957Z,101676.94
2022-10-12T18:39:10.925Z,101681.22
2022-10-12T18:41:38.579Z,101680.00
2022-10-12T18:44:06.633Z,101680.69
2022-10-12T18:46:34.729Z,101680.84
2022-10-12T18:49:05.398Z,101685.75
2022-10-12T18:51:34.897Z,101683.34
2022-10-12T18:54:02.755Z,101686.06
2022-10-12T18:56:30.883Z,101675.16
2022-10-12T18:58:59.850Z,101680.94
2022-10-12T19:01:28.285Z,101676.50
2022-10-12T19:03:56.570Z,101687.44
2022-10-12T19:06:26.061Z,101688.06
2022-10-12T19:08:55.344Z,101683.41
2022-10-12T19:11:23.757Z,101686.91
2022-10-12T19:14:15.373Z,101695.97
2022-10-12T19:16:44.436Z,101691.09
2022-10-12T19:19:20.758Z,101691.16
2022-10-12T19:21:49.889Z,101694.34
2022-10-12T19:24:18.154Z,101686.41
2022-10-12T19:26:45.783Z,101699.03
2022-10-12T19:29:14.263Z,101696.44
2022-10-12T19:31:44.374Z,101690.72
2022-10-12T19:34:12.815Z,101695.97
2022-10-12T19:36:41.047Z,101690.13
2022-10-12T19:39:11.749Z,101690.72
2022-10-12T19:41:39.880Z,101698.38
2022-10-12T19:44:07.576Z,101701.38
2022-10-12T19:46:35.218Z,101695.38
2022-10-12T19:49:03.376Z,101703.03
2022-10-12T19:51:32.038Z,101708.19
2022-10-12T19:54:01.032Z,101701.81
2022-10-12T19:56:28.647Z,101703.00
2022-10-12T19:58:57.612Z,101696.81
2022-10-12T20:01:27.090Z,101700.25
2022-10-12T20:03:54.760Z,101703.75
2022-10-12T20:06:28.527Z,101700.16
2022-10-12T20:08:58.497Z,101709.47
2022-10-12T20:11:26.449Z,101706.06
2022-10-12T20:13:55.000Z,101701.22
2022-10-12T20:16:23.045Z,101711.22
2022-10-12T20:18:50.750Z,101713.56
2022-10-12T20:21:21.875Z,101716.72
2022-10-12T20:23:49.969Z,101714.47
2022-10-12T20:26:19.456Z,101716.03
2022-10-12T20:28:47.466Z,101719.59
2022-10-12T20:31:15.255Z,101717.31
2022-10-12T20:33:43.045Z,101722.47
2022-10-12T20:36:11.828Z,101727.66
2022-10-12T20:38:40.633Z,101722.91
2022-10-12T20:41:10.480Z,101722.06
2022-10-12T20:43:41.895Z,101722.91
2022-10-12T20:46:14.429Z,101726.63
2022-10-12T20:48:42.594Z,101721.19
2022-10-12T20:51:13.630Z,101720.78
2022-10-12T20:53:42.212Z,101730.94
2022-10-12T20:56:11.335Z,101725.38
2022-10-12T20:58:39.850Z,101717.34
2022-10-12T21:01:09.359Z,101720.34
2022-10-12T21:03:37.364Z,101720.78
2022-10-12T21:06:06.806Z,101717.22
2022-10-12T21:08:34.811Z,101729.97
2022-10-12T21:11:02.835Z,101721.09
2022-10-12T21:13:36.211Z,101721.09
2022-10-12T21:16:04.873Z,101727.81
2022-10-12T21:18:37.655Z,101728.84
2022-10-12T21:21:14.209Z,101730.69
2022-10-12T21:23:42.365Z,101728.28
2022-10-12T21:26:18.068Z,101730.41
2022-10-12T21:28:45.899Z,101726.00
2022-10-12T21:31:13.926Z,101732.00
2022-10-12T21:33:41.879Z,101737.47
2022-10-12T21:36:14.823Z,101735.31
2022-10-12T21:38:42.876Z,101732.63
2022-10-12T21:41:11.452Z,101727.63
2022-10-12T21:43:39.367Z,101730.34
2022-10-12T21:46:18.784Z,101732.19
2022-10-12T21:48:47.992Z,101739.22
2022-10-12T21:51:15.746Z,101736.06
2022-10-12T21:53:44.140Z,101734.50
2022-10-12T21:56:14.924Z,101740.22
2022-10-12T21:58:44.514Z,101743.66
2022-10-12T22:01:17.573Z,101754.09
2022-10-12T22:03:45.558Z,101755.13
2022-10-12T22:06:14.435Z,101748.97
2022-10-12T22:08:42.899Z,101750.97
2022-10-12T22:11:13.895Z,101743.53
2022-10-12T22:13:41.916Z,101746.69
2022-10-12T22:16:11.547Z,101749.97
2022-10-12T22:18:40.066Z,101741.84
2022-10-12T22:21:10.174Z,101737.53
2022-10-12T22:23:37.893Z,101743.97
2022-10-12T22:26:07.328Z,101739.94
2022-10-12T22:28:35.264Z,101736.66
2022-10-12T22:31:21.716Z,101738.97
2022-10-12T22:33:49.284Z,101739.22
2022-10-12T22:36:17.596Z,101742.97
2022-10-12T22:38:45.916Z,101744.97
2022-10-12T22:41:15.735Z,101742.97
2022-10-12T22:43:47.762Z,101739.97
2022-10-12T22:46:15.498Z,101745.84
2022-10-12T22:48:43.104Z,101743.97
2022-10-12T22:51:11.111Z,101747.69
2022-10-12T22:53:39.521Z,101754.41
2022-10-12T22:56:08.928Z,101748.53
2022-10-12T22:58:36.533Z,101745.53
2022-10-12T23:01:12.226Z,101749.53
2022-10-12T23:03:40.394Z,101748.66
2022-10-12T23:06:12.490Z,101743.56
2022-10-12T23:08:41.836Z,101755.56
2022-10-12T23:11:11.440Z,101745.84
2022-10-12T23:13:41.759Z,101751.28
2022-10-12T23:16:14.517Z,101749.81
2022-10-12T23:18:42.124Z,101744.97
2022-10-12T23:21:16.798Z,101744.97
2022-10-12T23:23:45.108Z,101749.84
2022-10-12T23:26:15.485Z,101749.22
2022-10-12T23:28:44.190Z,101746.81
2022-10-12T23:31:19.897Z,101740.78
2022-10-12T23:33:48.252Z,101752.94
2022-10-12T23:36:17.270Z,101754.09
2022-10-12T23:38:44.993Z,101751.66
2022-10-12T23:41:12.889Z,101746.06
2022-10-12T23:43:40.661Z,101748.06
2022-10-12T23:46:12.252Z,101746.47
2022-10-12T23:48:40.256Z,101750.91
2022-10-12T23:51:10.873Z,101754.47
2022-10-12T23:53:38.479Z,101754.88
2022-10-12T23:56:06.822Z,101755.16
2022-10-12T23:58:35.025Z,101744.66
